sensor_id;sensor_type;location;lat;lon;timestamp;temperature;humidity
44047;DHT22;29713;-33.888;151.150;2023-04-24T00:02:12;23.20;99.90
44047;DHT22;29713;-33.888;151.150;2023-04-24T00:04:40;23.40;99.90
44047;DHT22;29713;-33.888;151.150;2023-04-24T00:07:14;23.40;99.90
44047;DHT22;29713;-33.888;151.150;2023-04-24T00:09:43;23.50;99.90
44047;DHT22;29713;-33.888;151.150;2023-04-24T00:12:11;23.40;99.90
44047;DHT22;29713;-33.888;151.150;2023-04-24T00:14:38;23.40;99.90
44047;DHT22;29713;-33.888;151.150;2023-04-24T00:17:06;23.20;99.90
44047;DHT22;29713;-33.888;151.150;2023-04-24T00:19:33;23.20;99.90
44047;DHT22;29713;-33.888;151.150;2023-04-24T00:22:00;23.40;99.90
44047;DHT22;29713;-33.888;151.150;2023-04-24T00:24:29;23.50;99.90
44047;DHT22;29713;-33.888;151.150;2023-04-24T00:26:56;23.60;99.90
44047;DHT22;29713;-33.888;151.150;2023-04-24T00:29:23;23.60;99.90
44047;DHT22;29713;-33.888;151.150;2023-04-24T00:31:51;23.60;99.90
44047;DHT22;29713;-33.888;151.150;2023-04-24T00:34:18;23.60;99.90
44047;DHT22;29713;-33.888;151.150;2023-04-24T00:36:46;23.70;99.90
44047;DHT22;29713;-33.888;151.150;2023-04-24T00:39:15;23.70;99.90
44047;DHT22;29713;-33.888;151.150;2023-04-24T00:41:43;24.00;99.90
44047;DHT22;29713;-33.888;151.150;2023-04-24T00:44:10;24.10;99.90
44047;DHT22;29713;-33.888;151.150;2023-04-24T00:46:38;24.20;99.90
44047;DHT22;29713;-33.888;151.150;2023-04-24T00:49:06;24.50;99.90
44047;DHT22;29713;-33.888;151.150;2023-04-24T00:51:33;24.80;99.90
44047;DHT22;29713;-33.888;151.150;2023-04-24T00:54:01;25.00;99.90
44047;DHT22;29713;-33.888;151.150;2023-04-24T00:56:29;25.30;99.90
44047;DHT22;29713;-33.888;151.150;2023-04-24T00:58:57;25.40;99.90
44047;DHT22;29713;-33.888;151.150;2023-04-24T01:01:24;25.50;99.90
44047;DHT22;29713;-33.888;151.150;2023-04-24T01:03:53;25.60;99.90
44047;DHT22;29713;-33.888;151.150;2023-04-24T01:06:21;25.70;99.90
44047;DHT22;29713;-33.888;151.150;2023-04-24T01:08:48;25.60;99.90
44047;DHT22;29713;-33.888;151.150;2023-04-24T01:11:16;25.70;99.90
44047;DHT22;29713;-33.888;151.150;2023-04-24T01:13:44;25.70;99.90
44047;DHT22;29713;-33.888;151.150;2023-04-24T01:16:11;25.50;99.90
44047;DHT22;29713;-33.888;151.150;2023-04-24T01:18:39;25.50;99.90
44047;DHT22;29713;-33.888;151.150;2023-04-24T01:21:08;25.50;99.90
44047;DHT22;29713;-33.888;151.150;2023-04-24T01:23:36;25.40;99.90
44047;DHT22;29713;-33.888;151.150;2023-04-24T01:26:03;25.30;99.90
44047;DHT22;29713;-33.888;151.150;2023-04-24T01:28:31;25.00;99.90
44047;DHT22;29713;-33.888;151.150;2023-04-24T01:30:58;25.00;99.90
44047;DHT22;29713;-33.888;151.150;2023-04-24T01:33:26;25.30;99.90
44047;DHT22;29713;-33.888;151.150;2023-04-24T01:35:53;25.30;99.90
44047;DHT22;29713;-33.888;151.150;2023-04-24T01:38:21;25.60;99.90
44047;DHT22;29713;-33.888;151.150;2023-04-24T01:40:49;25.80;99.90
44047;DHT22;29713;-33.888;151.150;2023-04-24T01:43:16;26.00;99.90
44047;DHT22;29713;-33.888;151.150;2023-04-24T01:45:44;26.20;99.90
44047;DHT22;29713;-33.888;151.150;2023-04-24T01:48:13;26.40;99.90
44047;DHT22;29713;-33.888;151.150;2023-04-24T01:50:40;26.60;99.90
44047;DHT22;29713;-33.888;151.150;2023-04-24T01:53:07;26.90;99.90
44047;DHT22;29713;-33.888;151.150;2023-04-24T01:55:35;26.80;99.90
44047;DHT22;29713;-33.888;151.150;2023-04-24T01:58:02;26.60;99.90
44047;DHT22;29713;-33.888;151.150;2023-04-24T02:00:30;26.30;99.90
44047;DHT22;29713;-33.888;151.150;2023-04-24T02:02:57;26.20;99.90
44047;DHT22;29713;-33.888;151.150;2023-04-24T02:05:24;25.70;99.90
44047;DHT22;29713;-33.888;151.150;2023-04-24T02:07:52;25.30;99.90
44047;DHT22;29713;-33.888;151.150;2023-04-24T02:10:19;24.90;99.90
44047;DHT22;29713;-33.888;151.150;2023-04-24T02:12:46;24.50;99.90
44047;DHT22;29713;-33.888;151.150;2023-04-24T02:15:13;24.20;99.90
44047;DHT22;29713;-33.888;151.150;2023-04-24T02:17:41;24.10;99.90
44047;DHT22;29713;-33.888;151.150;2023-04-24T02:20:08;24.00;99.90
44047;DHT22;29713;-33.888;151.150;2023-04-24T02:22:36;23.90;99.90
44047;DHT22;29713;-33.888;151.150;2023-04-24T02:25:03;23.80;99.90
44047;DHT22;29713;-33.888;151.150;2023-04-24T02:27:31;23.60;99.90
44047;DHT22;29713;-33.888;151.150;2023-04-24T02:29:58;23.50;99.90
44047;DHT22;29713;-33.888;151.150;2023-04-24T02:32:26;23.40;99.90
44047;DHT22;29713;-33.888;151.150;2023-04-24T02:34:53;23.20;99.90
44047;DHT22;29713;-33.888;151.150;2023-04-24T02:37:20;23.10;99.90
44047;DHT22;29713;-33.888;151.150;2023-04-24T02:39:48;23.00;99.90
44047;DHT22;29713;-33.888;151.150;2023-04-24T02:42:15;22.90;99.90
44047;DHT22;29713;-33.888;151.150;2023-04-24T02:44:42;22.90;99.90
44047;DHT22;29713;-33.888;151.150;2023-04-24T02:47:10;22.80;99.90
44047;DHT22;29713;-33.888;151.150;2023-04-24T02:49:37;22.80;99.90
44047;DHT22;29713;-33.888;151.150;2023-04-24T02:52:04;22.80;99.90
44047;DHT22;29713;-33.888;151.150;2023-04-24T02:54:32;22.80;99.90
44047;DHT22;29713;-33.888;151.150;2023-04-24T02:56:59;22.70;99.90
44047;DHT22;29713;-33.888;151.150;2023-04-24T02:59:27;22.70;99.90
44047;DHT22;29713;-33.888;151.150;2023-04-24T03:01:55;22.70;99.90
44047;DHT22;29713;-33.888;151.150;2023-04-24T03:04:22;22.70;99.90
44047;DHT22;29713;-33.888;151.150;2023-04-24T03:06:50;22.80;99.90
44047;DHT22;29713;-33.888;151.150;2023-04-24T03:09:19;22.90;99.90
44047;DHT22;29713;-33.888;151.150;2023-04-24T03:11:46;23.00;99.90
44047;DHT22;29713;-33.888;151.150;2023-04-24T03:14:15;23.10;99.90
44047;DHT22;29713;-33.888;151.150;2023-04-24T03:16:42;23.10;99.90
44047;DHT22;29713;-33.888;151.150;2023-04-24T03:19:10;23.20;99.90
44047;DHT22;29713;-33.888;151.150;2023-04-24T03:21:37;23.40;99.90
44047;DHT22;29713;-33.888;151.150;2023-04-24T03:24:09;23.50;99.90
44047;DHT22;29713;-33.888;151.150;2023-04-24T03:26:37;23.60;99.90
44047;DHT22;29713;-33.888;151.150;2023-04-24T03:29:04;23.60;99.90
44047;DHT22;29713;-33.888;151.150;2023-04-24T03:31:31;23.50;99.90
44047;DHT22;29713;-33.888;151.150;2023-04-24T03:33:59;23.40;99.90
44047;DHT22;29713;-33.888;151.150;2023-04-24T03:36:26;23.50;99.90
44047;DHT22;29713;-33.888;151.150;2023-04-24T03:38:54;23.60;99.90
44047;DHT22;29713;-33.888;151.150;2023-04-24T03:41:21;23.40;99.90
44047;DHT22;29713;-33.888;151.150;2023-04-24T03:43:49;23.20;99.90
44047;DHT22;29713;-33.888;151.150;2023-04-24T03:46:16;23.10;99.90
44047;DHT22;29713;-33.888;151.150;2023-04-24T03:48:44;22.90;99.90
44047;DHT22;29713;-33.888;151.150;2023-04-24T03:51:11;22.80;99.90
44047;DHT22;29713;-33.888;151.150;2023-04-24T03:53:38;22.70;99.90
44047;DHT22;29713;-33.888;151.150;2023-04-24T03:56:06;22.70;99.90
44047;DHT22;29713;-33.888;151.150;2023-04-24T03:58:33;22.80;99.90
44047;DHT22;29713;-33.888;151.150;2023-04-24T04:01:00;22.90;99.90
44047;DHT22;29713;-33.888;151.150;2023-04-24T04:03:29;23.00;99.90
44047;DHT22;29713;-33.888;151.150;2023-04-24T04:05:56;23.10;99.90
44047;DHT22;29713;-33.888;151.150;2023-04-24T04:08:23;23.10;99.90
44047;DHT22;29713;-33.888;151.150;2023-04-24T04:10:51;23.20;99.90
44047;DHT22;29713;-33.888;151.150;2023-04-24T04:13:18;23.20;99.90
44047;DHT22;29713;-33.888;151.150;2023-04-24T04:15:45;23.20;99.90
44047;DHT22;29713;-33.888;151.150;2023-04-24T04:18:13;23.30;99.90
44047;DHT22;29713;-33.888;151.150;2023-04-24T04:20:40;23.50;99.90
44047;DHT22;29713;-33.888;151.150;2023-04-24T04:23:08;23.80;99.90
44047;DHT22;29713;-33.888;151.150;2023-04-24T04:25:35;23.80;99.90
44047;DHT22;29713;-33.888;151.150;2023-04-24T04:28:02;24.00;99.90
44047;DHT22;29713;-33.888;151.150;2023-04-24T04:30:30;24.40;99.90
44047;DHT22;29713;-33.888;151.150;2023-04-24T04:32:59;24.70;99.90
44047;DHT22;29713;-33.888;151.150;2023-04-24T04:35:26;24.80;99.90
44047;DHT22;29713;-33.888;151.150;2023-04-24T04:37:54;25.10;99.90
44047;DHT22;29713;-33.888;151.150;2023-04-24T04:40:25;25.40;99.90
44047;DHT22;29713;-33.888;151.150;2023-04-24T04:42:53;25.50;99.90
44047;DHT22;29713;-33.888;151.150;2023-04-24T04:45:20;25.40;99.90
44047;DHT22;29713;-33.888;151.150;2023-04-24T04:47:48;25.10;99.90
44047;DHT22;29713;-33.888;151.150;2023-04-24T04:50:15;24.80;99.90
44047;DHT22;29713;-33.888;151.150;2023-04-24T04:52:45;24.70;99.90
44047;DHT22;29713;-33.888;151.150;2023-04-24T04:55:13;24.50;99.90
44047;DHT22;29713;-33.888;151.150;2023-04-24T04:57:45;24.30;99.90
44047;DHT22;29713;-33.888;151.150;2023-04-24T05:00:12;24.00;99.90
44047;DHT22;29713;-33.888;151.150;2023-04-24T05:02:40;23.70;99.90
44047;DHT22;29713;-33.888;151.150;2023-04-24T05:05:08;23.60;99.90
44047;DHT22;29713;-33.888;151.150;2023-04-24T05:07:35;24.00;99.90
44047;DHT22;29713;-33.888;151.150;2023-04-24T05:10:03;24.10;99.90
44047;DHT22;29713;-33.888;151.150;2023-04-24T05:12:30;24.30;99.90
44047;DHT22;29713;-33.888;151.150;2023-04-24T05:14:57;24.10;99.90
44047;DHT22;29713;-33.888;151.150;2023-04-24T05:17:25;24.00;99.90
44047;DHT22;29713;-33.888;151.150;2023-04-24T05:19:52;23.70;99.90
44047;DHT22;29713;-33.888;151.150;2023-04-24T05:22:19;23.60;99.90
44047;DHT22;29713;-33.888;151.150;2023-04-24T05:24:48;23.50;99.90
44047;DHT22;29713;-33.888;151.150;2023-04-24T05:27:15;23.20;99.90
44047;DHT22;29713;-33.888;151.150;2023-04-24T05:29:42;23.10;99.90
44047;DHT22;29713;-33.888;151.150;2023-04-24T05:32:10;22.90;99.90
44047;DHT22;29713;-33.888;151.150;2023-04-24T05:34:37;22.90;99.90
44047;DHT22;29713;-33.888;151.150;2023-04-24T05:37:04;22.80;99.90
44047;DHT22;29713;-33.888;151.150;2023-04-24T05:39:35;22.70;99.90
44047;DHT22;29713;-33.888;151.150;2023-04-24T05:42:03;22.60;99.90
44047;DHT22;29713;-33.888;151.150;2023-04-24T05:44:31;22.50;99.90
44047;DHT22;29713;-33.888;151.150;2023-04-24T05:46:58;22.30;99.90
44047;DHT22;29713;-33.888;151.150;2023-04-24T05:49:26;22.20;99.90
44047;DHT22;29713;-33.888;151.150;2023-04-24T05:51:53;22.30;99.90
44047;DHT22;29713;-33.888;151.150;2023-04-24T05:54:20;22.20;99.90
44047;DHT22;29713;-33.888;151.150;2023-04-24T05:56:48;22.20;99.90
44047;DHT22;29713;-33.888;151.150;2023-04-24T05:59:16;22.10;99.90
44047;DHT22;29713;-33.888;151.150;2023-04-24T06:01:44;22.10;99.90
44047;DHT22;29713;-33.888;151.150;2023-04-24T06:04:12;22.00;99.90
44047;DHT22;29713;-33.888;151.150;2023-04-24T06:06:42;21.90;99.90
44047;DHT22;29713;-33.888;151.150;2023-04-24T06:09:09;21.90;99.90
44047;DHT22;29713;-33.888;151.150;2023-04-24T06:11:37;21.80;99.90
44047;DHT22;29713;-33.888;151.150;2023-04-24T06:14:04;21.80;99.90
44047;DHT22;29713;-33.888;151.150;2023-04-24T06:16:31;21.70;99.90
44047;DHT22;29713;-33.888;151.150;2023-04-24T06:18:59;21.70;99.90
44047;DHT22;29713;-33.888;151.150;2023-04-24T06:21:26;21.70;99.90
44047;DHT22;29713;-33.888;151.150;2023-04-24T06:23:54;21.60;99.90
44047;DHT22;29713;-33.888;151.150;2023-04-24T06:26:22;21.50;99.90
44047;DHT22;29713;-33.888;151.150;2023-04-24T06:28:52;21.50;99.90
44047;DHT22;29713;-33.888;151.150;2023-04-24T06:31:20;21.40;99.90
44047;DHT22;29713;-33.888;151.150;2023-04-24T06:33:49;21.30;99.90
44047;DHT22;29713;-33.888;151.150;2023-04-24T06:36:16;21.30;99.90
44047;DHT22;29713;-33.888;151.150;2023-04-24T06:38:44;21.30;99.90
44047;DHT22;29713;-33.888;151.150;2023-04-24T06:41:11;21.30;99.90
44047;DHT22;29713;-33.888;151.150;2023-04-24T06:43:39;21.20;99.90
44047;DHT22;29713;-33.888;151.150;2023-04-24T06:46:06;21.10;99.90
44047;DHT22;29713;-33.888;151.150;2023-04-24T06:48:34;21.10;99.90
44047;DHT22;29713;-33.888;151.150;2023-04-24T06:51:01;21.10;99.90
44047;DHT22;29713;-33.888;151.150;2023-04-24T06:53:28;21.00;99.90
44047;DHT22;29713;-33.888;151.150;2023-04-24T06:55:56;21.00;99.90
44047;DHT22;29713;-33.888;151.150;2023-04-24T06:58:24;21.00;99.90
44047;DHT22;29713;-33.888;151.150;2023-04-24T07:00:51;21.00;99.90
44047;DHT22;29713;-33.888;151.150;2023-04-24T07:03:19;20.90;99.90
44047;DHT22;29713;-33.888;151.150;2023-04-24T07:05:47;20.90;99.90
44047;DHT22;29713;-33.888;151.150;2023-04-24T07:08:15;20.80;99.90
44047;DHT22;29713;-33.888;151.150;2023-04-24T07:10:44;20.70;99.90
44047;DHT22;29713;-33.888;151.150;2023-04-24T07:13:12;20.60;99.90
44047;DHT22;29713;-33.888;151.150;2023-04-24T07:15:39;20.50;99.90
44047;DHT22;29713;-33.888;151.150;2023-04-24T07:18:07;20.50;99.90
44047;DHT22;29713;-33.888;151.150;2023-04-24T07:20:35;20.50;99.90
44047;DHT22;29713;-33.888;151.150;2023-04-24T07:23:02;20.40;99.90
44047;DHT22;29713;-33.888;151.150;2023-04-24T07:25:30;20.40;99.90
44047;DHT22;29713;-33.888;151.150;2023-04-24T07:27:58;20.30;99.90
44047;DHT22;29713;-33.888;151.150;2023-04-24T07:30:25;20.30;99.90
44047;DHT22;29713;-33.888;151.150;2023-04-24T07:32:55;20.30;99.90
44047;DHT22;29713;-33.888;151.150;2023-04-24T07:35:22;20.30;99.90
44047;DHT22;29713;-33.888;151.150;2023-04-24T07:37:54;20.20;99.90
44047;DHT22;29713;-33.888;151.150;2023-04-24T07:40:22;20.20;99.90
44047;DHT22;29713;-33.888;151.150;2023-04-24T07:42:50;20.10;99.90
44047;DHT22;29713;-33.888;151.150;2023-04-24T07:45:17;20.10;99.90
44047;DHT22;29713;-33.888;151.150;2023-04-24T07:47:44;20.10;99.90
44047;DHT22;29713;-33.888;151.150;2023-04-24T07:50:12;20.10;99.90
44047;DHT22;29713;-33.888;151.150;2023-04-24T07:52:40;20.10;99.90
44047;DHT22;29713;-33.888;151.150;2023-04-24T07:55:07;20.00;99.90
44047;DHT22;29713;-33.888;151.150;2023-04-24T07:57:35;20.00;99.90
44047;DHT22;29713;-33.888;151.150;2023-04-24T08:00:04;20.00;99.90
44047;DHT22;29713;-33.888;151.150;2023-04-24T08:02:32;20.00;99.90
44047;DHT22;29713;-33.888;151.150;2023-04-24T08:04:59;20.00;99.90
44047;DHT22;29713;-33.888;151.150;2023-04-24T08:07:27;20.00;99.90
44047;DHT22;29713;-33.888;151.150;2023-04-24T08:09:54;19.90;99.90
44047;DHT22;29713;-33.888;151.150;2023-04-24T08:12:21;19.90;99.90
44047;DHT22;29713;-33.888;151.150;2023-04-24T08:14:49;19.90;99.90
44047;DHT22;29713;-33.888;151.150;2023-04-24T08:17:17;19.80;99.90
44047;DHT22;29713;-33.888;151.150;2023-04-24T08:19:44;19.80;99.90
44047;DHT22;29713;-33.888;151.150;2023-04-24T08:22:15;19.80;99.90
44047;DHT22;29713;-33.888;151.150;2023-04-24T08:24:42;19.80;99.90
44047;DHT22;29713;-33.888;151.150;2023-04-24T08:27:10;19.80;99.90
44047;DHT22;29713;-33.888;151.150;2023-04-24T08:29:38;19.80;99.90
44047;DHT22;29713;-33.888;151.150;2023-04-24T08:32:05;19.80;99.90
44047;DHT22;29713;-33.888;151.150;2023-04-24T08:34:33;19.80;99.90
44047;DHT22;29713;-33.888;151.150;2023-04-24T08:37:00;19.80;99.90
44047;DHT22;29713;-33.888;151.150;2023-04-24T08:39:27;19.80;99.90
44047;DHT22;29713;-33.888;151.150;2023-04-24T08:41:56;19.90;99.90
44047;DHT22;29713;-33.888;151.150;2023-04-24T08:44:23;19.80;99.90
44047;DHT22;29713;-33.888;151.150;2023-04-24T08:46:51;19.90;99.90
44047;DHT22;29713;-33.888;151.150;2023-04-24T08:49:19;19.90;99.90
44047;DHT22;29713;-33.888;151.150;2023-04-24T08:51:48;19.80;99.90
44047;DHT22;29713;-33.888;151.150;2023-04-24T08:54:16;19.90;99.90
44047;DHT22;29713;-33.888;151.150;2023-04-24T08:56:45;19.90;99.90
44047;DHT22;29713;-33.888;151.150;2023-04-24T08:59:15;19.90;99.90
44047;DHT22;29713;-33.888;151.150;2023-04-24T09:01:43;19.90;99.90
44047;DHT22;29713;-33.888;151.150;2023-04-24T09:04:13;20.00;99.90
44047;DHT22;29713;-33.888;151.150;2023-04-24T09:06:42;20.00;99.90
44047;DHT22;29713;-33.888;151.150;2023-04-24T09:09:14;20.00;99.90
44047;DHT22;29713;-33.888;151.150;2023-04-24T09:11:43;20.00;99.90
44047;DHT22;29713;-33.888;151.150;2023-04-24T09:14:11;19.90;99.90
44047;DHT22;29713;-33.888;151.150;2023-04-24T09:16:38;19.90;99.90
44047;DHT22;29713;-33.888;151.150;2023-04-24T09:19:06;20.00;99.90
44047;DHT22;29713;-33.888;151.150;2023-04-24T09:21:34;20.00;99.90
44047;DHT22;29713;-33.888;151.150;2023-04-24T09:24:05;19.90;99.90
44047;DHT22;29713;-33.888;151.150;2023-04-24T09:26:36;20.00;99.90
44047;DHT22;29713;-33.888;151.150;2023-04-24T09:29:04;19.90;99.90
44047;DHT22;29713;-33.888;151.150;2023-04-24T09:31:31;19.90;99.90
44047;DHT22;29713;-33.888;151.150;2023-04-24T09:34:01;19.80;99.90
44047;DHT22;29713;-33.888;151.150;2023-04-24T09:36:40;19.80;99.90
44047;DHT22;29713;-33.888;151.150;2023-04-24T09:39:10;19.80;99.90
44047;DHT22;29713;-33.888;151.150;2023-04-24T09:42:04;19.80;99.90
44047;DHT22;29713;-33.888;151.150;2023-04-24T09:44:35;19.70;99.90
44047;DHT22;29713;-33.888;151.150;2023-04-24T09:47:02;19.70;99.90
44047;DHT22;29713;-33.888;151.150;2023-04-24T09:49:30;19.70;99.90
44047;DHT22;29713;-33.888;151.150;2023-04-24T09:52:06;19.70;99.90
44047;DHT22;29713;-33.888;151.150;2023-04-24T09:54:33;19.60;99.90
44047;DHT22;29713;-33.888;151.150;2023-04-24T09:57:03;19.70;99.90
44047;DHT22;29713;-33.888;151.150;2023-04-24T09:59:31;19.70;99.90
44047;DHT22;29713;-33.888;151.150;2023-04-24T10:02:00;19.70;99.90
44047;DHT22;29713;-33.888;151.150;2023-04-24T10:04:29;19.70;99.90
44047;DHT22;29713;-33.888;151.150;2023-04-24T10:06:57;19.60;99.90
44047;DHT22;29713;-33.888;151.150;2023-04-24T10:09:26;19.60;99.90
44047;DHT22;29713;-33.888;151.150;2023-04-24T10:11:54;19.60;99.90
44047;DHT22;29713;-33.888;151.150;2023-04-24T10:14:23;19.60;99.90
44047;DHT22;29713;-33.888;151.150;2023-04-24T10:16:55;19.60;99.90
44047;DHT22;29713;-33.888;151.150;2023-04-24T10:19:26;19.70;99.90
44047;DHT22;29713;-33.888;151.150;2023-04-24T10:21:54;19.70;99.90
44047;DHT22;29713;-33.888;151.150;2023-04-24T10:24:22;19.70;99.90
44047;DHT22;29713;-33.888;151.150;2023-04-24T10:26:49;19.70;99.90
44047;DHT22;29713;-33.888;151.150;2023-04-24T10:29:18;19.60;99.90
44047;DHT22;29713;-33.888;151.150;2023-04-24T10:31:46;19.60;99.90
44047;DHT22;29713;-33.888;151.150;2023-04-24T10:34:16;19.60;99.90
44047;DHT22;29713;-33.888;151.150;2023-04-24T10:36:50;19.50;99.90
44047;DHT22;29713;-33.888;151.150;2023-04-24T10:39:19;19.50;99.90
44047;DHT22;29713;-33.888;151.150;2023-04-24T10:41:49;19.50;99.90
44047;DHT22;29713;-33.888;151.150;2023-04-24T10:44:25;19.50;99.90
44047;DHT22;29713;-33.888;151.150;2023-04-24T10:47:02;19.50;99.90
44047;DHT22;29713;-33.888;151.150;2023-04-24T10:49:31;19.50;99.90
44047;DHT22;29713;-33.888;151.150;2023-04-24T10:52:05;19.50;99.90
44047;DHT22;29713;-33.888;151.150;2023-04-24T10:54:36;19.50;99.90
44047;DHT22;29713;-33.888;151.150;2023-04-24T11:02:42;19.50;99.90
44047;DHT22;29713;-33.888;151.150;2023-04-24T11:05:16;19.50;99.90
44047;DHT22;29713;-33.888;151.150;2023-04-24T11:08:12;19.50;99.90
44047;DHT22;29713;-33.888;151.150;2023-04-24T11:10:47;19.50;99.90
44047;DHT22;29713;-33.888;151.150;2023-04-24T11:13:25;19.50;99.90
44047;DHT22;29713;-33.888;151.150;2023-04-24T11:16:15;19.50;99.90
44047;DHT22;29713;-33.888;151.150;2023-04-24T11:18:43;19.50;99.90
44047;DHT22;29713;-33.888;151.150;2023-04-24T11:21:21;19.50;99.90
44047;DHT22;29713;-33.888;151.150;2023-04-24T11:23:49;19.50;99.90
44047;DHT22;29713;-33.888;151.150;2023-04-24T11:26:22;19.40;99.90
44047;DHT22;29713;-33.888;151.150;2023-04-24T11:29:07;19.40;99.90
44047;DHT22;29713;-33.888;151.150;2023-04-24T11:31:44;19.40;99.90
44047;DHT22;29713;-33.888;151.150;2023-04-24T11:34:16;19.30;99.90
44047;DHT22;29713;-33.888;151.150;2023-04-24T11:36:46;19.30;99.90
44047;DHT22;29713;-33.888;151.150;2023-04-24T11:39:16;19.20;99.90
44047;DHT22;29713;-33.888;151.150;2023-04-24T11:41:43;19.20;99.90
44047;DHT22;29713;-33.888;151.150;2023-04-24T11:44:11;19.00;99.90
44047;DHT22;29713;-33.888;151.150;2023-04-24T11:46:44;19.00;99.90
44047;DHT22;29713;-33.888;151.150;2023-04-24T11:49:14;19.00;99.90
44047;DHT22;29713;-33.888;151.150;2023-04-24T11:51:41;18.90;99.90
44047;DHT22;29713;-33.888;151.150;2023-04-24T11:54:08;18.90;99.90
44047;DHT22;29713;-33.888;151.150;2023-04-24T11:56:39;18.90;99.90
44047;DHT22;29713;-33.888;151.150;2023-04-24T11:59:06;18.90;99.90
44047;DHT22;29713;-33.888;151.150;2023-04-24T12:01:46;18.80;99.90
44047;DHT22;29713;-33.888;151.150;2023-04-24T12:04:15;18.80;99.90
44047;DHT22;29713;-33.888;151.150;2023-04-24T12:09:41;18.80;99.90
44047;DHT22;29713;-33.888;151.150;2023-04-24T12:12:10;18.70;99.90
44047;DHT22;29713;-33.888;151.150;2023-04-24T12:14:59;18.70;99.90
44047;DHT22;29713;-33.888;151.150;2023-04-24T12:17:32;18.70;99.90
44047;DHT22;29713;-33.888;151.150;2023-04-24T12:20:07;18.70;99.90
44047;DHT22;29713;-33.888;151.150;2023-04-24T12:22:45;18.60;99.90
44047;DHT22;29713;-33.888;151.150;2023-04-24T12:25:13;18.60;99.90
44047;DHT22;29713;-33.888;151.150;2023-04-24T12:27:41;18.60;99.90
44047;DHT22;29713;-33.888;151.150;2023-04-24T12:30:15;18.50;99.90
44047;DHT22;29713;-33.888;151.150;2023-04-24T12:32:47;18.50;99.90
44047;DHT22;29713;-33.888;151.150;2023-04-24T12:35:20;18.50;99.90
44047;DHT22;29713;-33.888;151.150;2023-04-24T12:37:48;18.40;99.90
44047;DHT22;29713;-33.888;151.150;2023-04-24T12:40:16;18.40;99.90
44047;DHT22;29713;-33.888;151.150;2023-04-24T12:42:51;18.30;99.90
44047;DHT22;29713;-33.888;151.150;2023-04-24T12:45:19;18.30;99.90
44047;DHT22;29713;-33.888;151.150;2023-04-24T12:47:49;18.30;99.90
44047;DHT22;29713;-33.888;151.150;2023-04-24T12:50:17;18.20;99.90
44047;DHT22;29713;-33.888;151.150;2023-04-24T12:52:45;18.30;99.90
44047;DHT22;29713;-33.888;151.150;2023-04-24T12:55:15;18.20;99.90
44047;DHT22;29713;-33.888;151.150;2023-04-24T12:57:43;18.20;99.90
44047;DHT22;29713;-33.888;151.150;2023-04-24T13:00:11;18.20;99.90
44047;DHT22;29713;-33.888;151.150;2023-04-24T13:02:38;18.10;99.90
44047;DHT22;29713;-33.888;151.150;2023-04-24T13:05:06;18.10;99.90
44047;DHT22;29713;-33.888;151.150;2023-04-24T13:07:33;18.10;99.90
44047;DHT22;29713;-33.888;151.150;2023-04-24T13:10:01;18.00;99.90
44047;DHT22;29713;-33.888;151.150;2023-04-24T13:12:28;18.00;99.90
44047;DHT22;29713;-33.888;151.150;2023-04-24T13:14:56;18.00;99.90
44047;DHT22;29713;-33.888;151.150;2023-04-24T13:17:27;18.00;99.90
44047;DHT22;29713;-33.888;151.150;2023-04-24T13:19:55;18.00;99.90
44047;DHT22;29713;-33.888;151.150;2023-04-24T13:22:22;18.00;99.90
44047;DHT22;29713;-33.888;151.150;2023-04-24T13:24:50;18.00;99.90
44047;DHT22;29713;-33.888;151.150;2023-04-24T13:27:18;18.00;99.90
44047;DHT22;29713;-33.888;151.150;2023-04-24T13:29:45;18.00;99.90
44047;DHT22;29713;-33.888;151.150;2023-04-24T13:32:13;17.90;99.90
44047;DHT22;29713;-33.888;151.150;2023-04-24T13:34:40;17.90;99.90
44047;DHT22;29713;-33.888;151.150;2023-04-24T13:37:08;17.90;99.90
44047;DHT22;29713;-33.888;151.150;2023-04-24T13:39:35;17.90;99.90
44047;DHT22;29713;-33.888;151.150;2023-04-24T13:42:03;17.90;99.90
44047;DHT22;29713;-33.888;151.150;2023-04-24T13:44:30;17.90;99.90
44047;DHT22;29713;-33.888;151.150;2023-04-24T13:46:58;17.80;99.90
44047;DHT22;29713;-33.888;151.150;2023-04-24T13:49:27;17.80;99.90
44047;DHT22;29713;-33.888;151.150;2023-04-24T13:51:55;17.80;99.90
44047;DHT22;29713;-33.888;151.150;2023-04-24T13:54:23;17.80;99.90
44047;DHT22;29713;-33.888;151.150;2023-04-24T13:56:52;17.80;99.90
44047;DHT22;29713;-33.888;151.150;2023-04-24T13:59:20;17.80;99.90
44047;DHT22;29713;-33.888;151.150;2023-04-24T14:01:48;17.80;99.90
44047;DHT22;29713;-33.888;151.150;2023-04-24T14:04:15;17.80;99.90
44047;DHT22;29713;-33.888;151.150;2023-04-24T14:06:44;17.80;99.90
44047;DHT22;29713;-33.888;151.150;2023-04-24T14:09:11;17.80;99.90
44047;DHT22;29713;-33.888;151.150;2023-04-24T14:11:39;17.80;99.90
44047;DHT22;29713;-33.888;151.150;2023-04-24T14:14:10;17.80;99.90
44047;DHT22;29713;-33.888;151.150;2023-04-24T14:16:38;17.70;99.90
44047;DHT22;29713;-33.888;151.150;2023-04-24T14:19:05;17.70;99.90
44047;DHT22;29713;-33.888;151.150;2023-04-24T14:21:33;17.70;99.90
44047;DHT22;29713;-33.888;151.150;2023-04-24T14:24:00;17.70;99.90
44047;DHT22;29713;-33.888;151.150;2023-04-24T14:26:28;17.70;99.90
44047;DHT22;29713;-33.888;151.150;2023-04-24T14:28:55;17.70;99.90
44047;DHT22;29713;-33.888;151.150;2023-04-24T14:31:25;17.70;99.90
44047;DHT22;29713;-33.888;151.150;2023-04-24T14:33:52;17.60;99.90
44047;DHT22;29713;-33.888;151.150;2023-04-24T14:36:19;17.70;99.90
44047;DHT22;29713;-33.888;151.150;2023-04-24T14:38:47;17.60;99.90
44047;DHT22;29713;-33.888;151.150;2023-04-24T14:41:14;17.60;99.90
44047;DHT22;29713;-33.888;151.150;2023-04-24T14:43:44;17.60;99.90
44047;DHT22;29713;-33.888;151.150;2023-04-24T14:46:12;17.60;99.90
44047;DHT22;29713;-33.888;151.150;2023-04-24T14:48:39;17.50;99.90
44047;DHT22;29713;-33.888;151.150;2023-04-24T14:51:07;17.50;99.90
44047;DHT22;29713;-33.888;151.150;2023-04-24T14:53:34;17.50;99.90
44047;DHT22;29713;-33.888;151.150;2023-04-24T14:56:02;17.60;99.90
44047;DHT22;29713;-33.888;151.150;2023-04-24T14:58:29;17.60;99.90
44047;DHT22;29713;-33.888;151.150;2023-04-24T15:00:56;17.60;99.90
44047;DHT22;29713;-33.888;151.150;2023-04-24T15:03:24;17.60;99.90
44047;DHT22;29713;-33.888;151.150;2023-04-24T15:05:53;17.60;99.90